Time;durP1;ratioP1;P1;durP2;ratioP2;P2;SDS_P1;SDS_P2;PMS_P1;PMS_P2;Temp;Humidity;BMP_temperature;BMP_pressure;BME280_temperature;BME280_humidity;BME280_pressure;Samples;Min_cycle;Max_cycle;Signal;HPM_P1;HPM_P2
2023/07/28 00:00:38;;;;;;;0.83;0.83;;;;;;;21.31;70.91;100017.78;5064153;27;97104;-87
2023/07/28 00:03:04;;;;;;;1.30;1.13;;;;;;;21.29;70.97;100012.03;5064628;27;97126;-84
2023/07/28 00:05:29;;;;;;;5.17;1.27;;;;;;;21.30;71.13;100017.03;5048076;27;99740;-86
2023/07/28 00:07:54;;;;;;;1.63;1.00;;;;;;;21.34;70.89;100044.59;5051258;27;99037;-86
2023/07/28 00:10:20;;;;;;;1.80;1.67;;;;;;;21.35;70.89;100018.81;5045766;27;97266;-85
2023/07/28 00:12:45;;;;;;;1.83;1.57;;;;;;;21.29;70.69;100060.34;5064347;27;96949;-85
2023/07/28 00:15:10;;;;;;;1.57;1.47;;;;;;;21.32;70.81;100033.22;5045924;27;106347;-85
2023/07/28 00:17:36;;;;;;;2.80;1.40;;;;;;;21.29;70.87;100026.00;5044504;27;99622;-86
2023/07/28 00:20:01;;;;;;;1.40;1.30;;;;;;;21.28;70.80;100028.06;5044344;27;97206;-86
2023/07/28 00:22:27;;;;;;;1.50;1.40;;;;;;;21.28;70.79;100027.31;5063740;27;97596;-85
2023/07/28 00:24:52;;;;;;;1.50;1.40;;;;;;;21.26;70.92;100013.19;5062652;27;104997;-85
2023/07/28 00:27:18;;;;;;;2.60;2.40;;;;;;;21.27;70.96;100026.59;5062427;27;97345;-86
2023/07/28 00:29:43;;;;;;;3.30;1.70;;;;;;;21.29;71.00;100018.38;5063772;27;96752;-86
2023/07/28 00:32:09;;;;;;;1.60;1.50;;;;;;;21.28;70.83;100010.53;5062777;27;97188;-85
2023/07/28 00:34:34;;;;;;;2.07;1.97;;;;;;;21.29;70.98;100021.16;5062932;27;97635;-84
2023/07/28 00:36:59;;;;;;;1.13;1.03;;;;;;;21.29;70.99;100028.81;5042821;27;99626;-83
2023/07/28 00:39:24;;;;;;;2.87;1.37;;;;;;;21.26;70.76;100015.97;5062254;27;97414;-86
2023/07/28 00:41:50;;;;;;;2.63;2.30;;;;;;;21.28;70.86;100053.25;5061532;27;97379;-86
2023/07/28 00:44:16;;;;;;;3.90;1.97;;;;;;;21.30;70.88;100025.44;5046846;27;100638;-84
2023/07/28 00:46:42;;;;;;;1.83;1.33;;;;;;;21.21;70.81;100031.00;5062606;27;97510;-84
2023/07/28 00:49:08;;;;;;;1.60;1.50;;;;;;;21.28;70.94;100016.88;5063534;27;97522;-85
2023/07/28 00:51:35;;;;;;;3.57;2.23;;;;;;;21.29;70.91;100012.78;5053492;27;97147;-86
2023/07/28 00:54:02;;;;;;;2.27;2.07;;;;;;;21.26;70.76;100007.59;5048673;27;99240;-84
2023/07/28 00:56:27;;;;;;;4.27;2.40;;;;;;;21.28;70.83;100000.09;5048558;27;99538;-84
2023/07/28 00:58:53;;;;;;;7.43;2.20;;;;;;;21.22;70.91;100018.47;5065605;27;97008;-85
2023/07/28 01:01:18;;;;;;;11.40;2.77;;;;;;;21.28;70.97;100016.13;5065737;27;97243;-86
2023/07/28 01:03:44;;;;;;;2.53;2.37;;;;;;;21.17;70.91;100000.63;5066567;27;97566;-87
2023/07/28 01:06:40;;;;;;;2.07;1.83;;;;;;;21.23;71.27;99989.91;5068922;27;97043;-85
2023/07/28 01:09:12;;;;;;;1.83;1.40;;;;;;;21.26;70.81;99997.13;5066674;27;98115;-86
2023/07/28 01:11:37;;;;;;;1.97;1.13;;;;;;;21.25;70.94;99994.94;5048602;27;97414;-85
2023/07/28 01:14:02;;;;;;;1.27;1.17;;;;;;;21.24;70.92;100010.22;5046944;27;100703;-87
2023/07/28 01:16:28;;;;;;;1.53;1.43;;;;;;;21.21;71.18;100005.81;5064423;27;98639;-86
2023/07/28 01:18:53;;;;;;;2.53;2.03;;;;;;;21.16;71.03;100038.34;5048112;27;96756;-87
2023/07/28 01:21:26;;;;;;;1.30;1.17;;;;;;;21.17;70.96;100042.59;5045908;27;97544;-86
2023/07/28 01:24:20;;;;;;;3.67;1.80;;;;;;;21.18;71.29;100015.38;5065814;27;97433;-85
2023/07/28 01:26:46;;;;;;;4.90;1.50;;;;;;;21.19;70.99;100019.63;5066297;27;96660;-84
2023/07/28 01:29:14;;;;;;;1.20;1.10;;;;;;;21.21;70.92;100026.13;5063124;27;96972;-86
2023/07/28 01:31:40;;;;;;;1.97;1.77;;;;;;;21.22;71.05;100054.84;5066647;27;97139;-85
2023/07/28 01:34:05;;;;;;;2.93;1.50;;;;;;;21.22;70.92;100022.00;5047761;27;100073;-87
2023/07/28 01:36:30;;;;;;;1.57;1.47;;;;;;;21.22;70.95;100033.19;5046116;27;99658;-85
2023/07/28 01:38:56;;;;;;;1.60;1.50;;;;;;;21.22;70.84;100008.03;5046454;27;97317;-86
2023/07/28 01:41:21;;;;;;;1.67;1.57;;;;;;;21.21;70.98;100017.72;5045842;27;96858;-84
2023/07/28 01:43:46;;;;;;;1.20;1.10;;;;;;;21.22;70.91;100001.69;5051416;27;98846;-86
2023/07/28 01:46:12;;;;;;;1.73;1.60;;;;;;;21.21;71.01;100014.22;5044991;27;99888;-84
2023/07/28 01:48:37;;;;;;;1.53;1.10;;;;;;;21.22;71.24;100015.66;5045383;27;97033;-86
2023/07/28 01:51:02;;;;;;;4.20;2.23;;;;;;;21.22;70.81;100030.41;5048435;27;97303;-84
2023/07/28 01:53:28;;;;;;;2.13;1.90;;;;;;;21.20;70.92;100030.25;5045672;27;99096;-85
2023/07/28 01:55:53;;;;;;;2.00;1.73;;;;;;;21.21;71.07;100022.59;5050476;27;99480;-85
2023/07/28 01:58:19;;;;;;;1.87;1.60;;;;;;;21.20;71.05;100015.50;5049221;27;97476;-85
2023/07/28 02:00:46;;;;;;;1.63;1.50;;;;;;;21.25;70.91;100037.63;5045687;27;96636;-85
2023/07/28 02:03:11;;;;;;;1.80;1.70;;;;;;;21.26;70.77;100022.31;5063251;27;97843;-82
2023/07/28 02:05:37;;;;;;;3.87;1.90;;;;;;;21.26;70.81;100030.72;5045356;27;98986;-86
2023/07/28 02:08:02;;;;;;;1.80;1.60;;;;;;;21.20;70.76;100021.09;5068665;27;98449;-86
2023/07/28 02:10:29;;;;;;;1.73;1.63;;;;;;;21.25;70.83;100037.63;5048467;27;96921;-85
2023/07/28 02:12:54;;;;;;;3.70;1.97;;;;;;;21.20;71.03;100032.31;5047824;27;100602;-86
2023/07/28 02:15:20;;;;;;;2.00;1.80;;;;;;;21.18;70.99;100062.91;5068399;27;97191;-86
2023/07/28 02:17:45;;;;;;;4.60;2.10;;;;;;;21.21;70.89;100034.50;5062793;27;97159;-84
2023/07/28 02:20:12;;;;;;;2.00;1.90;;;;;;;21.17;71.06;100016.66;5064734;27;97134;-85
2023/07/28 02:22:39;;;;;;;2.10;1.90;;;;;;;21.15;71.08;100022.09;5063113;27;99868;-85
2023/07/28 02:25:04;;;;;;;2.27;2.03;;;;;;;21.15;71.11;100028.44;5065585;27;97088;-86
2023/07/28 02:27:30;;;;;;;2.37;1.40;;;;;;;21.14;71.01;100027.00;5067093;27;96848;-86
2023/07/28 02:29:55;;;;;;;2.20;2.00;;;;;;;21.16;71.09;100037.59;5067447;27;97166;-85
2023/07/28 02:32:20;;;;;;;1.43;1.33;;;;;;;21.17;71.29;100039.78;5044721;27;99344;-85
2023/07/28 02:34:46;;;;;;;2.23;1.77;;;;;;;21.15;70.98;100025.66;5054125;27;100248;-86
2023/07/28 02:37:11;;;;;;;1.73;1.60;;;;;;;21.16;71.21;100034.78;5050564;27;96842;-85
2023/07/28 02:39:36;;;;;;;2.03;1.93;;;;;;;21.16;70.98;100037.59;5049744;27;97411;-86
2023/07/28 02:42:02;;;;;;;1.83;1.70;;;;;;;21.17;71.20;100027.84;5054429;27;100317;-86
2023/07/28 02:44:27;;;;;;;3.30;2.93;;;;;;;21.16;71.02;100015.94;5051395;27;100508;-87
2023/07/28 02:46:53;;;;;;;2.60;2.30;;;;;;;21.15;71.13;100033.28;5046952;27;97038;-86
2023/07/28 02:49:18;;;;;;;1.97;1.87;;;;;;;21.10;71.18;100023.13;5064330;27;98440;-88
2023/07/28 02:51:43;;;;;;;2.23;2.07;;;;;;;21.11;71.19;100044.91;5047269;27;100399;-87
2023/07/28 02:54:09;;;;;;;2.90;2.20;;;;;;;21.18;70.99;100051.72;5051257;27;99024;-88
2023/07/28 02:56:37;;;;;;;3.37;2.67;;;;;;;21.10;71.17;100029.44;5046748;27;96939;-85
2023/07/28 02:59:03;;;;;;;4.80;2.53;;;;;;;21.07;71.13;100032.69;5069134;27;98352;-88
2023/07/28 03:01:35;;;;;;;5.67;5.10;;;;;;;21.11;71.10;100047.72;5050126;27;99110;-86
2023/07/28 03:04:03;;;;;;;2.70;2.50;;;;;;;21.15;71.02;100044.50;5048956;27;100354;-87
2023/07/28 03:06:29;;;;;;;5.97;4.77;;;;;;;21.13;71.06;100061.13;5069566;27;97035;-86
2023/07/28 03:08:54;;;;;;;2.67;2.47;;;;;;;21.21;71.04;100044.97;5048257;27;96674;-86
2023/07/28 03:11:20;;;;;;;4.47;2.77;;;;;;;21.19;71.11;100036.41;5045319;27;99073;-85
2023/07/28 03:13:45;;;;;;;3.80;3.27;;;;;;;21.17;70.97;100081.75;5063444;27;99444;-86
2023/07/28 03:16:11;;;;;;;4.70;3.97;;;;;;;21.24;70.87;100069.72;5065434;27;96602;-85
2023/07/28 03:18:36;;;;;;;4.50;3.30;;;;;;;21.16;70.98;100054.38;5044536;27;97070;-83
2023/07/28 03:21:02;;;;;;;4.07;3.77;;;;;;;21.21;71.04;100078.56;5048563;27;113110;-84
2023/07/28 03:23:27;;;;;;;3.80;3.50;;;;;;;21.17;70.90;100090.16;5044928;27;100056;-86
2023/07/28 03:25:52;;;;;;;4.33;3.90;;;;;;;21.24;70.93;100078.13;5045561;27;97117;-85
2023/07/28 03:28:18;;;;;;;5.23;4.40;;;;;;;21.22;70.81;100055.59;5049058;27;97543;-87
2023/07/28 03:30:43;;;;;;;4.97;4.27;;;;;;;21.23;70.86;100064.72;5047142;27;102561;-84
2023/07/28 03:33:08;;;;;;;4.70;3.80;;;;;;;21.24;70.81;100055.00;5049118;27;98911;-85
2023/07/28 03:35:34;;;;;;;5.23;3.57;;;;;;;21.22;70.73;100066.78;5045137;27;97249;-84
2023/07/28 03:37:59;;;;;;;4.10;3.70;;;;;;;21.19;71.01;100058.78;5064600;27;97044;-86
2023/07/28 03:40:25;;;;;;;4.20;3.80;;;;;;;21.18;70.92;100065.72;5044489;27;100544;-86
2023/07/28 03:42:50;;;;;;;5.27;4.77;;;;;;;21.15;71.04;100064.81;5050782;27;99261;-85
2023/07/28 03:45:16;;;;;;;6.13;3.50;;;;;;;21.18;71.11;100071.31;5051208;27;96803;-87
2023/07/28 03:47:42;;;;;;;3.93;3.20;;;;;;;21.12;71.06;100102.34;5065867;27;97378;-85
2023/07/28 03:50:07;;;;;;;3.97;3.37;;;;;;;21.15;71.13;100066.88;5065717;27;97618;-86
2023/07/28 03:52:42;;;;;;;3.57;3.30;;;;;;;21.14;71.26;100063.34;5046940;27;99443;-85
2023/07/28 03:55:07;;;;;;;4.23;2.90;;;;;;;21.12;71.22;100062.44;5043497;27;97224;-83
2023/07/28 03:57:33;;;;;;;3.30;2.93;;;;;;;21.12;71.18;100065.25;5050977;27;96807;-85
2023/07/28 03:59:58;;;;;;;3.60;3.30;;;;;;;21.14;71.18;100054.97;5048540;27;99224;-85
2023/07/28 04:02:23;;;;;;;2.93;2.73;;;;;;;21.15;71.15;100072.47;5044364;27;100785;-86
2023/07/28 04:04:58;;;;;;;3.07;2.87;;;;;;;21.18;71.33;100066.47;5046277;27;97049;-86
2023/07/28 04:07:23;;;;;;;3.23;2.90;;;;;;;21.17;71.16;100062.19;5045855;27;96745;-85
2023/07/28 04:09:49;;;;;;;3.90;3.40;;;;;;;21.16;71.14;100060.72;5063433;27;99212;-86
2023/07/28 04:12:14;;;;;;;4.90;4.50;;;;;;;21.18;71.21;100069.25;5064604;27;97317;-87
2023/07/28 04:14:40;;;;;;;4.97;4.13;;;;;;;21.12;71.06;100091.16;5064808;27;97330;-84
2023/07/28 04:17:06;;;;;;;4.43;3.77;;;;;;;21.16;71.08;100079.56;5065432;27;97201;-85
2023/07/28 04:19:33;;;;;;;3.90;3.50;;;;;;;21.11;71.15;100086.13;5045760;27;99721;-87
2023/07/28 04:21:59;;;;;;;3.90;3.20;;;;;;;21.16;71.23;100104.72;5065489;27;97754;-86
2023/07/28 04:24:25;;;;;;;4.80;3.50;;;;;;;21.15;71.27;100097.66;5051698;27;97282;-85
2023/07/28 04:26:50;;;;;;;6.43;3.40;;;;;;;21.17;71.16;100111.78;5050703;27;97388;-86
2023/07/28 04:29:16;;;;;;;6.00;3.97;;;;;;;21.19;71.18;100123.88;5067897;27;97099;-87
2023/07/28 04:31:41;;;;;;;4.20;3.60;;;;;;;21.16;71.06;100090.75;5069200;27;97805;-87
2023/07/28 04:34:06;;;;;;;4.00;3.60;;;;;;;21.15;71.11;100117.22;5053435;27;97516;-85
2023/07/28 04:36:32;;;;;;;3.90;3.23;;;;;;;21.17;71.16;100097.81;5069160;27;97128;-87
2023/07/28 04:38:57;;;;;;;3.37;3.07;;;;;;;21.16;71.16;100107.53;5050559;27;100620;-87
2023/07/28 04:41:23;;;;;;;5.00;4.17;;;;;;;21.08;71.15;100126.47;5069525;27;97667;-86
2023/07/28 04:43:48;;;;;;;5.87;4.83;;;;;;;21.16;71.13;100122.25;5053165;27;97036;-87
2023/07/28 04:46:14;;;;;;;4.13;3.77;;;;;;;21.16;71.12;100115.91;5055841;27;97200;-87
2023/07/28 04:48:39;;;;;;;4.60;3.80;;;;;;;21.10;71.03;100137.81;5065614;27;99480;-86
2023/07/28 04:51:04;;;;;;;4.57;4.07;;;;;;;21.11;71.30;100111.31;5052631;27;100977;-86
2023/07/28 04:53:30;;;;;;;4.70;4.10;;;;;;;21.11;71.19;100123.25;5050987;27;97088;-86
2023/07/28 04:55:55;;;;;;;4.77;4.27;;;;;;;21.17;71.19;100150.97;5069625;27;97047;-86
2023/07/28 04:58:21;;;;;;;5.80;3.97;;;;;;;21.15;71.43;100148.00;5049017;27;100397;-86
2023/07/28 05:00:46;;;;;;;6.87;5.30;;;;;;;21.13;71.30;100114.28;5049943;27;100045;-85
2023/07/28 05:03:11;;;;;;;4.60;3.40;;;;;;;21.14;71.37;100118.56;5071741;27;97335;-86
2023/07/28 05:05:37;;;;;;;4.30;3.63;;;;;;;21.13;71.19;100126.22;5051532;27;97511;-86
2023/07/28 05:08:02;;;;;;;3.83;3.50;;;;;;;21.11;71.30;100123.25;5054076;27;100553;-87
2023/07/28 05:10:27;;;;;;;3.60;3.27;;;;;;;21.16;71.27;100149.50;5050669;27;100492;-87
2023/07/28 05:12:53;;;;;;;4.40;3.40;;;;;;;21.18;71.13;100118.88;5067823;27;96948;-85
2023/07/28 05:15:18;;;;;;;7.70;4.53;;;;;;;21.12;71.21;100132.38;5057346;27;97680;-86
2023/07/28 05:17:43;;;;;;;3.67;3.30;;;;;;;21.17;71.05;100146.09;5069794;27;99515;-85
2023/07/28 05:20:09;;;;;;;4.67;3.97;;;;;;;21.15;71.31;100140.34;5053935;27;100656;-86
2023/07/28 05:22:34;;;;;;;4.53;4.07;;;;;;;21.17;71.25;100139.75;5070161;27;97392;-87
2023/07/28 05:25:00;;;;;;;5.73;4.83;;;;;;;21.18;71.25;100138.47;5071229;27;96904;-86
2023/07/28 05:27:25;;;;;;;7.37;6.63;;;;;;;21.19;71.19;100139.91;5048228;27;100265;-85
2023/07/28 05:29:50;;;;;;;3.63;3.37;;;;;;;21.18;71.38;100144.81;5051113;27;100738;-85
2023/07/28 05:32:16;;;;;;;5.77;4.07;;;;;;;21.20;71.46;100139.38;5050073;27;97308;-86
2023/07/28 05:34:44;;;;;;;8.23;6.03;;;;;;;21.21;71.32;100146.44;5055919;27;96865;-86
2023/07/28 05:37:10;;;;;;;6.57;5.10;;;;;;;21.24;71.22;100144.53;5062678;27;100608;-86
2023/07/28 05:39:35;;;;;;;3.20;2.60;;;;;;;21.20;71.30;100144.22;5052135;27;99895;-86
2023/07/28 05:42:01;;;;;;;4.97;3.47;;;;;;;21.24;71.48;100139.69;5048660;27;96944;-87
2023/07/28 05:44:26;;;;;;;4.43;3.97;;;;;;;21.26;71.21;100134.25;5055914;27;98239;-87
2023/07/28 05:46:52;;;;;;;5.33;3.97;;;;;;;21.27;71.33;100132.94;5053167;27;99554;-86
2023/07/28 05:49:17;;;;;;;3.67;3.30;;;;;;;21.29;71.26;100146.34;5068024;27;97439;-86
2023/07/28 05:51:42;;;;;;;6.73;5.00;;;;;;;21.28;71.23;100161.63;5048109;27;96971;-84
2023/07/28 05:54:08;;;;;;;11.20;7.00;;;;;;;21.30;71.38;100140.16;5052687;27;97210;-87
2023/07/28 05:56:34;;;;;;;13.43;10.20;;;;;;;21.32;71.36;100145.16;5049464;27;100491;-87
2023/07/28 05:58:59;;;;;;;14.10;6.47;;;;;;;21.35;71.32;100149.63;5052895;27;100819;-85
2023/07/28 06:01:26;;;;;;;6.33;4.47;;;;;;;21.39;71.22;100147.88;5050126;27;97307;-86
2023/07/28 06:03:55;;;;;;;5.67;4.67;;;;;;;21.41;71.26;100152.88;5052312;27;97176;-87
2023/07/28 06:06:21;;;;;;;12.10;7.87;;;;;;;21.43;71.40;100151.00;5048204;27;100600;-86
2023/07/28 06:08:46;;;;;;;4.50;4.07;;;;;;;21.44;71.23;100168.53;5068664;27;98097;-87
2023/07/28 06:11:11;;;;;;;5.07;4.60;;;;;;;21.48;71.42;100164.00;5054474;27;96690;-86
2023/07/28 06:13:37;;;;;;;13.77;8.93;;;;;;;21.51;71.29;100162.09;5049653;27;97356;-86
2023/07/28 06:16:02;;;;;;;8.60;6.53;;;;;;;21.53;71.36;100165.78;5048131;27;100595;-86
2023/07/28 06:18:27;;;;;;;8.67;7.80;;;;;;;21.53;71.32;100157.41;5046558;27;99296;-87
2023/07/28 06:20:53;;;;;;;7.40;5.90;;;;;;;21.50;71.30;100169.00;5062591;27;97356;-87
2023/07/28 06:23:18;;;;;;;6.60;6.00;;;;;;;21.56;71.25;100158.28;5050672;27;97382;-85
2023/07/28 06:25:45;;;;;;;9.63;7.87;;;;;;;21.54;71.36;100170.06;5061014;27;99408;-86
2023/07/28 06:28:11;;;;;;;7.90;6.20;;;;;;;21.58;71.19;100183.63;5046626;27;100023;-87
2023/07/28 06:30:37;;;;;;;8.53;5.83;;;;;;;21.62;71.27;100179.09;5047505;27;96906;-87
2023/07/28 06:33:05;;;;;;;6.57;5.43;;;;;;;21.67;71.16;100185.75;5047147;27;97005;-87
2023/07/28 06:35:30;;;;;;;12.73;6.60;;;;;;;21.65;71.27;100217.13;5045816;27;99709;-85
2023/07/28 06:37:56;;;;;;;14.97;11.50;;;;;;;21.75;71.13;100185.66;5065384;27;96980;-84
2023/07/28 06:40:21;;;;;;;10.83;7.63;;;;;;;21.68;71.29;100192.84;5064307;27;98267;-83
2023/07/28 06:42:46;;;;;;;21.33;12.57;;;;;;;21.76;71.24;100203.91;5064272;27;97401;-85
2023/07/28 06:45:12;;;;;;;13.40;9.27;;;;;;;21.78;71.26;100188.00;5045161;27;108460;-86
2023/07/28 06:47:38;;;;;;;15.93;9.50;;;;;;;21.79;71.21;100203.50;5043725;27;98971;-86
2023/07/28 06:50:05;;;;;;;11.63;7.43;;;;;;;21.81;71.31;100195.25;5045031;27;97116;-87
2023/07/28 06:52:30;;;;;;;6.80;5.10;;;;;;;21.84;71.20;100201.78;5063870;27;97441;-87
2023/07/28 06:54:56;;;;;;;7.33;6.43;;;;;;;21.84;71.11;100201.78;5064460;27;96923;-85
2023/07/28 06:57:21;;;;;;;9.77;7.33;;;;;;;21.80;71.31;100244.19;5048102;27;98756;-85
2023/07/28 06:59:47;;;;;;;14.53;9.17;;;;;;;21.89;71.15;100223.19;5063452;27;97333;-82
2023/07/28 07:02:12;;;;;;;9.67;7.57;;;;;;;21.90;71.10;100213.47;5065147;27;97804;-85
2023/07/28 07:04:38;;;;;;;28.37;14.90;;;;;;;21.90;71.14;100216.25;5059915;27;98863;-85
2023/07/28 07:07:03;;;;;;;8.70;6.27;;;;;;;21.88;71.19;100228.06;5049548;27;99889;-85
2023/07/28 07:09:28;;;;;;;8.27;6.70;;;;;;;21.88;71.09;100211.25;5061988;27;97409;-85
2023/07/28 07:11:54;;;;;;;13.03;8.37;;;;;;;21.91;71.01;100232.47;5062879;27;97527;-85
2023/07/28 07:14:20;;;;;;;12.37;9.20;;;;;;;21.89;71.03;100211.97;5044828;27;98906;-85
2023/07/28 07:16:45;;;;;;;38.63;15.80;;;;;;;21.89;71.12;100217.56;5043943;27;98981;-85
2023/07/28 07:19:11;;;;;;;5.73;5.20;;;;;;;21.90;71.14;100225.41;5044770;27;96643;-86
2023/07/28 07:21:36;;;;;;;5.13;4.50;;;;;;;21.94;71.26;100230.59;5046341;27;97620;-84
2023/07/28 07:24:05;;;;;;;13.63;7.13;;;;;;;21.95;71.20;100226.47;5044594;27;99679;-85
2023/07/28 07:26:31;;;;;;;8.67;7.83;;;;;;;22.00;71.08;100223.38;5061428;27;97861;-84
2023/07/28 07:28:56;;;;;;;8.73;7.87;;;;;;;22.02;71.13;100236.81;5061169;27;97776;-86
2023/07/28 07:31:22;;;;;;;19.33;11.03;;;;;;;22.02;70.75;100220.00;5061870;27;97116;-84
2023/07/28 07:33:47;;;;;;;8.47;6.30;;;;;;;22.08;70.81;100234.50;5062715;27;98020;-85
2023/07/28 07:36:14;;;;;;;22.23;11.70;;;;;;;22.09;70.90;100233.16;5063086;27;97503;-84
2023/07/28 07:38:40;;;;;;;13.50;10.70;;;;;;;22.04;70.92;100260.13;5062257;27;100190;-83
2023/07/28 07:41:06;;;;;;;12.37;6.43;;;;;;;22.11;70.80;100244.53;5048041;27;97348;-83
2023/07/28 07:43:31;;;;;;;25.07;7.10;;;;;;;22.12;70.90;100240.41;5053783;27;97951;-84
2023/07/28 07:45:57;;;;;;;23.07;13.63;;;;;;;22.14;70.70;100243.38;5033270;27;99274;-86
2023/07/28 07:48:22;;;;;;;32.43;16.87;;;;;;;22.11;70.78;100287.28;5034324;27;97786;-84
2023/07/28 07:50:47;;;;;;;8.53;7.73;;;;;;;22.17;70.87;100259.03;5054267;27;97819;-87
2023/07/28 07:53:13;;;;;;;12.60;9.50;;;;;;;22.21;70.82;100256.53;5052748;27;106531;-85
2023/07/28 07:55:38;;;;;;;14.43;9.90;;;;;;;22.22;70.72;100283.97;5052918;27;97605;-85
2023/07/28 07:58:03;;;;;;;9.27;6.60;;;;;;;22.24;70.61;100264.50;5034991;27;98723;-88
2023/07/28 08:00:29;;;;;;;15.10;6.37;;;;;;;22.22;70.62;100249.59;5038957;27;97404;-84
2023/07/28 08:02:54;;;;;;;3.70;3.47;;;;;;;22.23;70.63;100265.09;5055216;27;99735;-86
2023/07/28 08:05:20;;;;;;;9.63;6.40;;;;;;;22.21;70.70;100264.94;5055562;27;99467;-85
2023/07/28 08:07:47;;;;;;;10.57;5.97;;;;;;;22.26;70.81;100278.66;5055922;27;97142;-84
2023/07/28 08:10:13;;;;;;;3.20;3.00;;;;;;;22.29;70.66;100266.31;5041100;27;97323;-83
2023/07/28 08:12:38;;;;;;;5.03;3.27;;;;;;;22.29;70.60;100282.38;5037951;27;100450;-84
2023/07/28 08:15:04;;;;;;;5.30;4.90;;;;;;;22.28;70.61;100276.03;5054459;27;100092;-82
2023/07/28 08:17:29;;;;;;;3.77;3.40;;;;;;;22.29;70.41;100294.31;5035535;27;97712;-83
2023/07/28 08:19:54;;;;;;;3.83;3.00;;;;;;;22.28;70.52;100286.47;5055664;27;98243;-85
2023/07/28 08:22:20;;;;;;;5.00;4.67;;;;;;;22.29;70.50;100302.75;5036984;27;101200;-82
2023/07/28 08:24:45;;;;;;;14.77;10.37;;;;;;;22.24;70.64;100300.94;5054449;27;99301;-83
2023/07/28 08:27:10;;;;;;;5.50;5.00;;;;;;;22.23;70.41;100293.88;5037829;27;98217;-84
2023/07/28 08:29:36;;;;;;;8.30;6.43;;;;;;;22.23;70.51;100305.06;5036358;27;97765;-86
2023/07/28 08:32:02;;;;;;;7.73;5.93;;;;;;;22.23;70.49;100296.66;5054020;27;100662;-83
2023/07/28 08:34:27;;;;;;;6.60;5.97;;;;;;;22.26;70.38;100303.16;5054899;27;99152;-84
2023/07/28 08:36:55;;;;;;;8.10;7.27;;;;;;;22.32;70.48;100317.66;5036723;27;97140;-84
2023/07/28 08:39:20;;;;;;;14.10;9.07;;;;;;;22.36;70.25;100326.38;5055394;27;97326;-83
2023/07/28 08:41:57;;;;;;;6.40;5.87;;;;;;;22.33;70.13;100361.16;5035640;27;100177;-84
2023/07/28 08:44:23;;;;;;;9.43;8.03;;;;;;;22.29;70.32;100287.97;5055817;27;97548;-85
2023/07/28 08:46:48;;;;;;;17.27;10.97;;;;;;;22.41;70.31;100305.72;5055618;27;97421;-84
2023/07/28 08:49:13;;;;;;;7.43;6.73;;;;;;;22.48;70.28;100337.78;5052304;27;97542;-84
2023/07/28 08:51:52;;;;;;;10.77;7.13;;;;;;;22.40;70.09;100343.50;5035930;27;99215;-84
2023/07/28 08:54:18;;;;;;;8.90;6.93;;;;;;;22.47;70.08;100333.50;5036285;27;100387;-85
2023/07/28 08:56:43;;;;;;;7.83;6.63;;;;;;;22.51;69.99;100317.00;5034212;27;96944;-86
2023/07/28 08:59:09;;;;;;;7.90;6.10;;;;;;;22.49;70.13;100317.59;5053557;27;97320;-84
2023/07/28 09:01:41;;;;;;;10.57;8.57;;;;;;;22.56;70.02;100346.84;5055071;27;98085;-84
2023/07/28 09:04:10;;;;;;;12.43;8.40;;;;;;;22.57;70.20;100323.06;5031238;27;99248;-85
2023/07/28 09:06:36;;;;;;;8.50;7.47;;;;;;;22.53;70.15;100357.16;5054029;27;97246;-83
2023/07/28 09:09:01;;;;;;;9.90;7.70;;;;;;;22.51;70.07;100322.59;5051515;27;97212;-84
2023/07/28 09:11:27;;;;;;;7.83;6.97;;;;;;;22.52;70.15;100354.94;5052351;27;99335;-85
2023/07/28 09:13:55;;;;;;;15.63;8.03;;;;;;;22.55;70.18;100318.03;5035682;27;98612;-84
2023/07/28 09:16:22;;;;;;;8.40;7.57;;;;;;;22.65;70.24;100352.50;5054956;27;99611;-85
2023/07/28 09:18:49;;;;;;;6.73;6.13;;;;;;;22.70;70.11;100354.28;5052787;27;96961;-83
2023/07/28 09:21:17;;;;;;;19.30;11.93;;;;;;;22.73;69.93;100338.34;5052014;27;99173;-84
2023/07/28 09:23:45;;;;;;;11.00;7.00;;;;;;;22.76;70.09;100373.66;5054723;27;96859;-86
2023/07/28 09:26:11;;;;;;;8.03;7.33;;;;;;;22.83;70.14;100336.31;5054979;27;97533;-85
2023/07/28 09:28:41;;;;;;;24.67;18.67;;;;;;;22.96;70.01;100338.72;5062292;27;96970;-86
2023/07/28 09:31:07;;;;;;;38.23;21.23;;;;;;;23.08;70.05;100325.63;5045196;27;99813;-86
2023/07/28 09:33:35;;;;;;;24.90;13.83;;;;;;;23.20;69.72;100337.75;5061516;27;97158;-83
2023/07/28 09:36:11;;;;;;;46.47;23.90;;;;;;;23.24;69.71;100340.13;5063343;27;97356;-84
2023/07/28 09:38:38;;;;;;;52.77;34.07;;;;;;;23.32;69.56;100343.53;5061686;27;97039;-86
2023/07/28 09:41:09;;;;;;;15.83;10.87;;;;;;;23.32;69.54;100377.97;5064143;27;97324;-85
2023/07/28 09:43:35;;;;;;;27.67;13.03;;;;;;;23.42;69.43;100342.22;5046384;27;100171;-83
2023/07/28 09:46:03;;;;;;;25.23;15.10;;;;;;;23.49;69.26;100341.34;5046370;27;97219;-87
2023/07/28 09:48:32;;;;;;;23.87;14.77;;;;;;;23.56;69.38;100337.66;5062003;27;98660;-85
2023/07/28 09:50:59;;;;;;;32.87;22.23;;;;;;;23.66;69.44;100349.63;5047970;27;99553;-84
2023/07/28 09:53:28;;;;;;;78.97;41.77;;;;;;;23.74;69.28;100347.41;5045052;27;100460;-85
2023/07/28 09:55:55;;;;;;;80.20;42.97;;;;;;;23.81;68.93;100359.81;5063843;27;97179;-86
2023/07/28 09:58:24;;;;;;;59.53;29.20;;;;;;;23.93;68.82;100343.09;5045905;27;96828;-85
2023/07/28 10:00:50;;;;;;;37.20;19.93;;;;;;;23.98;68.87;100344.88;5045674;27;100982;-86
2023/07/28 10:03:16;;;;;;;11.43;9.40;;;;;;;23.98;68.79;100330.84;5062414;27;99501;-87
2023/07/28 10:05:42;;;;;;;15.50;11.20;;;;;;;23.93;68.52;100348.72;5062512;27;97291;-86
2023/07/28 10:08:09;;;;;;;10.07;8.07;;;;;;;23.95;68.56;100326.38;5064369;27;97570;-84
2023/07/28 10:10:35;;;;;;;7.97;6.63;;;;;;;23.98;68.28;100345.63;5046547;27;99363;-88
2023/07/28 10:13:00;;;;;;;7.03;6.37;;;;;;;23.95;68.37;100340.44;5050568;27;99579;-86
2023/07/28 10:15:32;;;;;;;6.40;5.27;;;;;;;23.99;68.06;100343.53;5062612;27;96837;-87
2023/07/28 10:17:59;;;;;;;7.07;6.47;;;;;;;24.09;68.16;100353.44;5040483;27;97023;-85
2023/07/28 10:20:49;;;;;;;5.00;3.50;;;;;;;24.25;66.96;100334.19;5044221;27;100149;-85
2023/07/28 10:23:21;;;;;;;3.60;3.40;;;;;;;24.44;67.24;100351.03;5040956;27;100640;-87
2023/07/28 10:25:55;;;;;;;5.70;5.17;;;;;;;24.55;67.37;100368.00;5045328;27;96772;-87
2023/07/28 10:28:47;;;;;;;4.47;4.13;;;;;;;24.72;66.10;100336.09;5060260;27;97398;-84
2023/07/28 10:31:12;;;;;;;3.60;3.30;;;;;;;24.81;66.57;100340.97;5039341;27;99198;-84
2023/07/28 10:33:46;;;;;;;2.63;2.53;;;;;;;24.87;66.22;100340.66;5061038;27;100246;-86
2023/07/28 10:36:34;;;;;;;3.40;3.10;;;;;;;24.93;64.73;100353.06;5043074;27;96750;-84
2023/07/28 10:39:07;;;;;;;3.03;2.87;;;;;;;25.03;65.74;100344.56;5060935;27;97216;-86
2023/07/28 10:41:35;;;;;;;3.67;3.47;;;;;;;25.08;65.66;100335.03;5060944;27;99279;-87
2023/07/28 10:44:01;;;;;;;3.57;3.30;;;;;;;25.08;65.79;100344.22;5042724;27;98954;-85
2023/07/28 10:46:26;;;;;;;3.60;3.30;;;;;;;25.15;65.45;100343.31;5046983;27;97207;-86
2023/07/28 10:48:52;;;;;;;2.80;2.60;;;;;;;25.09;65.27;100351.34;5063559;27;96957;-85
2023/07/28 10:51:28;;;;;;;2.43;2.33;;;;;;;25.21;64.39;100345.75;5045240;27;99292;-85
2023/07/28 10:53:57;;;;;;;2.53;2.33;;;;;;;25.25;65.04;100354.47;5063593;27;97544;-84
2023/07/28 10:56:23;;;;;;;2.50;2.30;;;;;;;25.24;64.83;100355.84;5064049;27;97016;-84
2023/07/28 10:58:59;;;;;;;2.40;2.23;;;;;;;25.25;63.73;100348.84;5042506;27;97284;-87
2023/07/28 11:01:40;;;;;;;2.63;2.43;;;;;;;25.28;63.84;100354.03;5061388;27;100801;-86
2023/07/28 11:04:25;;;;;;;2.20;2.10;;;;;;;25.22;63.24;100348.00;5060438;27;100897;-85
2023/07/28 11:06:51;;;;;;;3.90;2.27;;;;;;;25.24;64.31;100350.22;5038348;27;96862;-84
2023/07/28 11:09:21;;;;;;;2.80;2.50;;;;;;;25.39;63.98;100349.06;5063289;27;97120;-85
2023/07/28 11:11:47;;;;;;;2.50;2.30;;;;;;;25.53;64.35;100344.41;5061293;27;100425;-85
2023/07/28 11:14:15;;;;;;;2.27;2.10;;;;;;;25.73;63.89;100345.72;5044711;27;100162;-84
2023/07/28 11:16:41;;;;;;;2.57;2.33;;;;;;;25.87;63.33;100380.44;5064375;27;97305;-84
2023/07/28 11:19:11;;;;;;;2.50;2.40;;;;;;;26.00;62.81;100343.22;5044479;27;97409;-83